Torres, Argentina
Current Conditions -  °F | °C
As of 5:00 AM on Saturday 29 Nov 2014 (Local Time) from SADF Reporting Station
Clear Clear  
Wind Chill: 66°   Ceiling: Unl
Heat Index: 66°   Visibility: 6mi
Dew Point: 57°   Wind: 13mph
Humidity: 73%   Direction: 20°NNE
Pressure: 29.8"   Gusts: NA
Location:  34.43°S, 59.13°W
Report Text: SADF 290800Z 02011KT CAVOK 19/14 Q1009
Loading
Personal Weather Stations






























Interactive Weather Map New forecast layout! Learn more

10-Day Weather Forecast

Advertisements
Track Severe Weather on mobile